Florida Highway — 3EPT6 — position and weather

sailwx.info

Track history (hours):
 
Tides and Currents Weather Stations Pressure Air Temp Water Temp Dewpoint Dewpoint Depression Visibility Wind Speed Wind Dir Waves Ship Positions

Florida Highway

Last reported at 2018-Feb-21 02:45 UTC. Time now 2018-Feb-25 10:08 UTC.
Position N 34°05' E 132°49'.

; draft 7 m.

Type: Ship. MMSI: 372805000.

Date/timePositionNaut miles runAvg speedWind from/ knotsBaromVisibWave heightAir tempDewpointWater temp
2018-Feb-21 02:45N 34°05' E 132°49'311.7
2018-Feb-21 02:27N 34°03' E 132°47'612.5
2018-Feb-21 02:00N 33°58' E 132°43'713.1
2018-Feb-21 01:30N 33°54' E 132°37'3 6.7
2018-Feb-21 01:00N 33°52' E 132°41'0 0.0
2018-Feb-21 00:30N 33°52' E 132°41'0 0.0
2018-Feb-21 00:00N 33°52' E 132°41'1 1.6
2018-Feb-20 23:30N 33°51' E 132°40'3 6.2
2018-Feb-20 22:57N 33°50' E 132°36'613.3
2018-Feb-20 22:30N 33°46' E 132°30'917.6
2018-Feb-20 21:59N 33°40' E 132°22'918.4
2018-Feb-20 21:30N 33°34' E 132°14'918.2
2018-Feb-20 21:00N 33°28' E 132°06'917.2
2018-Feb-20 20:30N 33°22' E 131°59'713.5
2018-Feb-20 20:00N 33°15' E 132°00'3 7.0
2018-Feb-20 19:30N 33°11' E 132°00'4 7.0
2018-Feb-20 18:59N 33°09' E 132°04'3 6.2
2018-Feb-20 18:30N 33°07' E 132°06'813.8
2018-Feb-20 17:58N 33°00' E 132°10'510.5
2018-Feb-20 17:28N 32°56' E 132°13'  
Track history (hours):
 
Tides and Currents Weather Stations Pressure Air Temp Water Temp Dewpoint Dewpoint Depression Visibility Wind Speed Wind Dir Waves Ship Positions

Florida Highway

Last reported at 2018-Feb-21 02:45 UTC. Time now 2018-Feb-25 10:08 UTC.
Position N 34°05' E 132°49'.

; draft 7 m.

Type: Ship. MMSI: 372805000.

Date/timePositionNaut miles runAvg speedWind from/ knotsBaromVisibWave heightAir tempDewpointWater temp
2018-Feb-21 02:45N 34°05' E 132°49'311.7
2018-Feb-21 02:27N 34°03' E 132°47'612.5
2018-Feb-21 02:00N 33°58' E 132°43'713.1
2018-Feb-21 01:30N 33°54' E 132°37'3 6.7
2018-Feb-21 01:00N 33°52' E 132°41'0 0.0
2018-Feb-21 00:30N 33°52' E 132°41'0 0.0
2018-Feb-21 00:00N 33°52' E 132°41'1 1.6
2018-Feb-20 23:30N 33°51' E 132°40'3 6.2
2018-Feb-20 22:57N 33°50' E 132°36'613.3
2018-Feb-20 22:30N 33°46' E 132°30'917.6
2018-Feb-20 21:59N 33°40' E 132°22'918.4
2018-Feb-20 21:30N 33°34' E 132°14'918.2
2018-Feb-20 21:00N 33°28' E 132°06'917.2
2018-Feb-20 20:30N 33°22' E 131°59'713.5
2018-Feb-20 20:00N 33°15' E 132°00'3 7.0
2018-Feb-20 19:30N 33°11' E 132°00'4 7.0
2018-Feb-20 18:59N 33°09' E 132°04'3 6.2
2018-Feb-20 18:30N 33°07' E 132°06'813.8
2018-Feb-20 17:58N 33°00' E 132°10'510.5
2018-Feb-20 17:28N 32°56' E 132°13'  

Dump ship's entire track history